createdAt,value
2022-12-18T00:00:28.416Z,-2.84
2022-12-18T00:03:31.090Z,-2.82
2022-12-18T00:06:34.089Z,-2.81
2022-12-18T00:09:39.797Z,-2.72
2022-12-18T00:12:42.976Z,-2.61
2022-12-18T00:15:45.551Z,-2.51
2022-12-18T00:18:48.225Z,-2.44
2022-12-18T00:21:50.804Z,-2.34
2022-12-18T00:24:54.693Z,-2.27
2022-12-18T00:27:57.263Z,-2.24
2022-12-18T00:31:02.611Z,-2.40
2022-12-18T00:34:05.311Z,-2.50
2022-12-18T00:37:07.843Z,-2.58
2022-12-18T00:40:13.440Z,-2.62
2022-12-18T00:43:15.009Z,-2.58
2022-12-18T00:46:17.653Z,-2.54
2022-12-18T00:49:21.157Z,-2.51
2022-12-18T00:52:23.721Z,-2.48
2022-12-18T00:55:27.760Z,-2.44
2022-12-18T00:58:30.322Z,-2.50
2022-12-18T01:01:33.525Z,-2.51
2022-12-18T01:04:36.373Z,-2.52
2022-12-18T01:07:38.937Z,-2.48
2022-12-18T01:10:43.349Z,-2.47
2022-12-18T01:13:45.880Z,-2.41
2022-12-18T01:16:48.455Z,-2.38
2022-12-18T01:19:51.067Z,-2.37
2022-12-18T01:22:53.625Z,-2.34
2022-12-18T01:25:57.567Z,-2.35
2022-12-18T01:29:00.340Z,-2.42
2022-12-18T01:32:02.999Z,-2.55
2022-12-18T01:35:06.670Z,-2.72
2022-12-18T01:38:09.187Z,-2.81
2022-12-18T01:41:13.060Z,-2.76
2022-12-18T01:44:48.940Z,-2.70
2022-12-18T01:47:52.184Z,-2.67
2022-12-18T01:50:54.758Z,-2.62
2022-12-18T01:53:57.349Z,-2.57
2022-12-18T01:57:01.848Z,-2.54
2022-12-18T02:00:07.547Z,-2.53
2022-12-18T02:03:10.235Z,-2.51
2022-12-18T02:06:15.542Z,-2.49
2022-12-18T02:09:20.487Z,-2.46
2022-12-18T02:12:25.339Z,-2.41
2022-12-18T02:15:30.437Z,-2.41
2022-12-18T02:18:34.743Z,-2.40
2022-12-18T02:21:42.470Z,-2.39
2022-12-18T02:24:47.289Z,-2.38
2022-12-18T02:27:51.438Z,-2.41
2022-12-18T02:30:54.108Z,-2.40
2022-12-18T02:34:01.939Z,-2.39
2022-12-18T02:37:05.835Z,-2.39
2022-12-18T02:40:10.009Z,-2.40
2022-12-18T02:43:14.851Z,-2.39
2022-12-18T02:46:39.104Z,-2.41
2022-12-18T02:49:46.513Z,-2.42
2022-12-18T02:52:51.989Z,-2.49
2022-12-18T02:55:58.982Z,-2.68
2022-12-18T02:59:04.287Z,-2.67
2022-12-18T03:02:09.914Z,-2.63
2022-12-18T03:05:14.446Z,-2.68
2022-12-18T03:08:18.137Z,-2.68
2022-12-18T03:11:40.700Z,-2.66
2022-12-18T03:14:44.571Z,-2.64
2022-12-18T03:17:48.444Z,-2.70
2022-12-18T03:20:51.233Z,-2.74
2022-12-18T03:23:53.752Z,-2.78
2022-12-18T03:26:58.295Z,-2.81
2022-12-18T03:30:08.243Z,-2.82
2022-12-18T03:33:12.599Z,-2.80
2022-12-18T03:36:15.112Z,-2.78
2022-12-18T03:39:17.621Z,-2.80
2022-12-18T03:42:23.279Z,-2.90
2022-12-18T03:45:29.136Z,-2.93
2022-12-18T03:48:33.201Z,-2.94
2022-12-18T03:51:39.694Z,-2.95
2022-12-18T03:54:42.303Z,-2.93
2022-12-18T03:57:44.902Z,-2.93
2022-12-18T04:00:48.816Z,-2.95
2022-12-18T04:03:51.396Z,-3.09
2022-12-18T04:06:54.001Z,-3.17
2022-12-18T04:09:57.921Z,-3.27
2022-12-18T04:13:00.534Z,-3.34
2022-12-18T04:16:04.839Z,-3.33
2022-12-18T04:19:07.401Z,-3.30
2022-12-18T04:22:11.133Z,-3.22
2022-12-18T04:25:13.739Z,-3.22
2022-12-18T04:28:16.306Z,-3.22
2022-12-18T04:31:20.220Z,-3.23
2022-12-18T04:34:23.120Z,-3.19
2022-12-18T04:37:25.668Z,-3.23
2022-12-18T04:40:28.230Z,-3.29
2022-12-18T04:43:30.842Z,-3.34
2022-12-18T04:46:34.812Z,-3.31
2022-12-18T04:49:37.441Z,-3.26
2022-12-18T04:52:40.019Z,-3.29
2022-12-18T04:55:42.584Z,-3.38
2022-12-18T04:58:45.953Z,-3.47
2022-12-18T05:01:49.989Z,-3.50
2022-12-18T05:04:52.643Z,-3.60
2022-12-18T05:07:55.175Z,-3.65
2022-12-18T05:11:01.622Z,-3.63
2022-12-18T05:14:04.212Z,-3.70
2022-12-18T05:17:08.092Z,-3.74
2022-12-18T05:20:11.753Z,-3.72
2022-12-18T05:23:14.331Z,-3.72
2022-12-18T05:26:18.567Z,-3.77
2022-12-18T05:29:21.144Z,-3.83
2022-12-18T05:32:25.089Z,-3.95
2022-12-18T05:35:27.672Z,-4.00
2022-12-18T05:38:31.001Z,-4.07
2022-12-18T05:41:33.564Z,-4.12
2022-12-18T05:44:36.143Z,-4.13
2022-12-18T05:47:40.070Z,-4.14
2022-12-18T05:50:43.461Z,-4.12
2022-12-18T05:53:46.081Z,-4.19
2022-12-18T05:56:49.065Z,-4.26
2022-12-18T05:59:52.028Z,-4.37
2022-12-18T06:02:55.964Z,-4.42
2022-12-18T06:05:58.583Z,-4.44
2022-12-18T06:09:02.224Z,-4.44
2022-12-18T06:12:05.160Z,-4.34
2022-12-18T06:15:08.756Z,-4.30
2022-12-18T06:18:12.608Z,-4.37
2022-12-18T06:21:15.136Z,-4.45
2022-12-18T06:24:17.701Z,-4.53
2022-12-18T06:27:20.220Z,-4.57
2022-12-18T06:30:22.738Z,-4.62
2022-12-18T06:33:27.855Z,-4.66
2022-12-18T06:36:33.272Z,-4.67
2022-12-18T06:39:35.781Z,-4.69
2022-12-18T06:42:38.304Z,-4.67
2022-12-18T06:45:41.385Z,-4.58
2022-12-18T06:48:48.277Z,-4.57
2022-12-18T06:51:50.806Z,-4.50
2022-12-18T06:54:53.384Z,-4.58
2022-12-18T06:57:55.953Z,-4.66
2022-12-18T07:01:02.154Z,-4.62
2022-12-18T07:04:06.299Z,-4.59
2022-12-18T07:07:08.817Z,-4.60
2022-12-18T07:10:11.460Z,-4.63
2022-12-18T07:13:13.981Z,-4.63
2022-12-18T07:16:24.274Z,-4.62
2022-12-18T07:19:28.981Z,-4.63
2022-12-18T07:22:32.547Z,-4.70
2022-12-18T07:25:35.800Z,-4.77
2022-12-18T07:28:38.508Z,-4.80
2022-12-18T07:31:41.451Z,-4.79
2022-12-18T07:34:45.580Z,-4.73
2022-12-18T07:37:49.811Z,-4.68
2022-12-18T07:40:52.333Z,-4.67
2022-12-18T07:43:54.860Z,-4.59
2022-12-18T07:46:57.367Z,-4.53
2022-12-18T07:50:01.269Z,-4.50
2022-12-18T07:53:05.727Z,-4.45
2022-12-18T07:59:32.213Z,-4.43
2022-12-18T08:02:34.849Z,-4.46
2022-12-18T08:05:39.328Z,-4.43
2022-12-18T08:08:43.035Z,-4.37
2022-12-18T08:11:45.661Z,-4.35
2022-12-18T08:14:48.199Z,-4.37
2022-12-18T08:17:50.754Z,-4.35
2022-12-18T08:20:54.747Z,-4.33
2022-12-18T08:23:57.961Z,-4.33
2022-12-18T08:30:23.304Z,-4.20
2022-12-18T08:33:25.988Z,-4.19
2022-12-18T08:36:29.906Z,-4.13
2022-12-18T08:39:32.468Z,-4.03
2022-12-18T08:42:55.620Z,-3.97
2022-12-18T08:45:58.436Z,-3.97
2022-12-18T08:49:01.056Z,-3.87
2022-12-18T08:52:05.400Z,-3.84
2022-12-18T08:55:09.532Z,-3.79
2022-12-18T08:58:12.066Z,-3.78
2022-12-18T09:01:14.976Z,-3.80
2022-12-18T09:04:17.705Z,-3.81
2022-12-18T09:07:21.634Z,-3.79
2022-12-18T09:10:24.163Z,-3.74
2022-12-18T09:13:26.729Z,-3.72
2022-12-18T09:16:32.245Z,-3.76
2022-12-18T09:19:35.412Z,-3.81
2022-12-18T09:22:39.260Z,-3.81
2022-12-18T09:25:41.845Z,-3.78
2022-12-18T09:28:45.003Z,-3.78
2022-12-18T09:31:47.565Z,-3.70
2022-12-18T09:34:50.149Z,-3.69
2022-12-18T09:37:54.017Z,-3.67
2022-12-18T09:40:59.577Z,-3.66
2022-12-18T09:44:03.251Z,-3.58
2022-12-18T09:47:11.682Z,-3.47
2022-12-18T09:50:21.591Z,-3.41
2022-12-18T09:53:27.825Z,-3.36
2022-12-18T09:56:31.126Z,-3.28
2022-12-18T09:59:36.568Z,-3.21
2022-12-18T10:02:39.288Z,-3.15
2022-12-18T10:05:44.340Z,-3.09
2022-12-18T10:08:51.121Z,-3.04
2022-12-18T10:11:57.289Z,-3.08
2022-12-18T10:15:02.731Z,-3.08
2022-12-18T10:18:20.290Z,-3.13
2022-12-18T10:21:27.072Z,-3.10
2022-12-18T10:24:34.826Z,-3.17
2022-12-18T10:27:37.333Z,-3.16
2022-12-18T10:30:40.073Z,-3.10
2022-12-18T10:33:42.654Z,-3.08
2022-12-18T10:36:45.232Z,-3.01
2022-12-18T10:39:49.431Z,-3.05
2022-12-18T10:43:05.198Z,-2.96
2022-12-18T10:46:16.461Z,-2.93
2022-12-18T10:49:24.512Z,-2.87
2022-12-18T10:52:27.467Z,-2.85
2022-12-18T10:55:33.679Z,-2.81
2022-12-18T10:58:37.140Z,-2.77
2022-12-18T11:01:51.058Z,-2.71
2022-12-18T11:04:53.963Z,-2.64
2022-12-18T11:07:57.104Z,-2.60
2022-12-18T11:11:00.984Z,-2.52
2022-12-18T11:14:05.226Z,-2.44
2022-12-18T11:17:26.747Z,-2.46
2022-12-18T11:20:33.559Z,-2.40
2022-12-18T11:23:36.513Z,-2.34
2022-12-18T11:26:40.901Z,-2.31
2022-12-18T11:29:46.704Z,-2.29
2022-12-18T11:32:49.517Z,-2.26
2022-12-18T11:35:53.164Z,-2.22
2022-12-18T11:38:55.829Z,-2.21
2022-12-18T11:42:13.316Z,-2.16
2022-12-18T11:45:27.998Z,-2.16
2022-12-18T11:48:32.238Z,-2.14
2022-12-18T11:51:36.521Z,-2.23
2022-12-18T11:54:39.089Z,-2.15
2022-12-18T11:57:46.385Z,-2.07
2022-12-18T12:00:50.819Z,-2.04
2022-12-18T12:04:37.218Z,-1.95
2022-12-18T12:07:44.187Z,-1.89
2022-12-18T12:10:52.881Z,-1.89
2022-12-18T12:14:04.366Z,-1.83
2022-12-18T12:17:12.244Z,-1.78
2022-12-18T12:20:17.817Z,-1.85
2022-12-18T12:23:27.814Z,-1.81
2022-12-18T12:26:34.825Z,-1.70
2022-12-18T12:29:44.905Z,-1.73
2022-12-18T12:33:00.122Z,-1.66
2022-12-18T12:36:06.301Z,-1.62
2022-12-18T12:39:10.275Z,-1.57
2022-12-18T12:42:33.800Z,-1.54
2022-12-18T12:45:39.392Z,-1.49
2022-12-18T12:48:44.556Z,-1.49
2022-12-18T12:51:48.021Z,-1.44
2022-12-18T12:54:51.830Z,-1.42
2022-12-18T12:57:59.697Z,-1.41
2022-12-18T13:01:10.555Z,-1.36
2022-12-18T13:04:22.713Z,-1.44
2022-12-18T13:07:28.057Z,-1.36
2022-12-18T13:10:36.191Z,-1.32
2022-12-18T13:13:49.633Z,-1.31
2022-12-18T13:17:05.612Z,-1.28
2022-12-18T13:20:12.275Z,-1.24
2022-12-18T13:23:30.390Z,-1.23
2022-12-18T13:26:34.175Z,-1.21
2022-12-18T13:29:43.816Z,-1.17
2022-12-18T13:32:47.906Z,-1.17
2022-12-18T13:35:54.954Z,-1.19
2022-12-18T13:39:28.855Z,-1.13
2022-12-18T13:43:00.357Z,-1.16
2022-12-18T13:46:07.992Z,-1.15
2022-12-18T13:49:22.485Z,-1.12
2022-12-18T13:52:26.381Z,-1.12
2022-12-18T13:55:28.946Z,-1.10
2022-12-18T13:58:31.548Z,-1.06
2022-12-18T14:01:34.260Z,-1.04
2022-12-18T14:04:38.567Z,-1.00
2022-12-18T14:07:42.924Z,-0.99
2022-12-18T14:10:51.930Z,-1.00
2022-12-18T14:13:54.571Z,-1.03
2022-12-18T14:16:57.192Z,-0.98
2022-12-18T14:20:01.450Z,-0.99
2022-12-18T14:23:04.070Z,-1.03
2022-12-18T14:26:22.222Z,-1.02
2022-12-18T14:29:26.988Z,-1.05
2022-12-18T14:32:29.505Z,-1.02
2022-12-18T14:35:33.480Z,-0.93
2022-12-18T14:38:36.849Z,-0.87
2022-12-18T14:41:39.376Z,-0.83
2022-12-18T14:45:05.085Z,-0.77
2022-12-18T14:48:10.835Z,-0.73
2022-12-18T14:51:19.299Z,-0.71
2022-12-18T14:54:22.071Z,-0.74
2022-12-18T14:57:25.628Z,-0.79
2022-12-18T15:00:28.238Z,-0.78
2022-12-18T15:03:30.890Z,-0.75
2022-12-18T15:06:35.964Z,-0.72
2022-12-18T15:09:38.732Z,-0.72
2022-12-18T15:12:42.902Z,-0.74
2022-12-18T15:15:49.876Z,-0.72
2022-12-18T15:18:52.484Z,-0.71
2022-12-18T15:22:04.457Z,-0.72
2022-12-18T15:25:25.833Z,-0.72
2022-12-18T15:28:30.110Z,-0.75
2022-12-18T15:31:33.087Z,-0.77
2022-12-18T15:34:35.862Z,-0.77
2022-12-18T15:37:42.686Z,-0.74
2022-12-18T15:40:45.196Z,-0.70
2022-12-18T15:43:47.733Z,-0.67
2022-12-18T15:46:50.391Z,-0.63
2022-12-18T15:49:52.961Z,-0.60
2022-12-18T15:52:57.096Z,-0.56
2022-12-18T15:56:25.949Z,-0.53
2022-12-18T15:59:29.393Z,-0.53
2022-12-18T16:02:33.497Z,-0.50
2022-12-18T16:05:36.384Z,-0.44
2022-12-18T16:08:40.266Z,-0.42
2022-12-18T16:11:44.538Z,-0.38
2022-12-18T16:14:47.169Z,-0.35
2022-12-18T16:17:50.186Z,-0.33
2022-12-18T16:20:52.788Z,-0.30
2022-12-18T16:23:56.686Z,-0.28
2022-12-18T16:27:00.402Z,-0.28
2022-12-18T16:30:03.025Z,-0.24
2022-12-18T16:33:05.560Z,-0.24
2022-12-18T16:36:10.279Z,-0.21
2022-12-18T16:39:14.149Z,-0.22
2022-12-18T16:42:19.694Z,-0.19
2022-12-18T16:45:22.249Z,-0.17
2022-12-18T16:48:24.824Z,-0.16
2022-12-18T16:51:27.399Z,-0.14
2022-12-18T16:54:31.362Z,-0.13
2022-12-18T16:57:33.901Z,-0.12
2022-12-18T17:00:40.661Z,-0.08
2022-12-18T17:03:43.568Z,-0.08
2022-12-18T17:06:51.600Z,-0.05
2022-12-18T17:09:55.480Z,-0.06
2022-12-18T17:12:57.996Z,-0.07
2022-12-18T17:16:03.744Z,-0.05
2022-12-18T17:19:06.291Z,-0.04
2022-12-18T17:22:09.433Z,-0.02
2022-12-18T17:25:13.289Z,0.00
2022-12-18T17:28:15.849Z,0.03
2022-12-18T17:31:19.603Z,0.03
2022-12-18T17:34:23.242Z,0.03
2022-12-18T17:37:26.272Z,0.07
2022-12-18T17:40:30.188Z,0.09
2022-12-18T17:43:32.848Z,0.10
2022-12-18T17:46:35.417Z,0.10
2022-12-18T17:49:38.059Z,0.14
2022-12-18T17:52:40.629Z,0.17
2022-12-18T17:55:44.551Z,0.18
2022-12-18T17:58:47.961Z,0.20
2022-12-18T18:01:50.762Z,0.23
2022-12-18T18:04:53.426Z,0.25
2022-12-18T18:07:57.064Z,0.26
2022-12-18T18:11:19.106Z,0.31
2022-12-18T18:14:21.744Z,0.29
2022-12-18T18:17:24.343Z,0.34
2022-12-18T18:20:28.501Z,0.33
2022-12-18T18:23:32.670Z,0.35
2022-12-18T18:26:36.588Z,0.37
2022-12-18T18:29:39.194Z,0.38
2022-12-18T18:32:41.705Z,0.39
2022-12-18T18:35:53.932Z,0.40
2022-12-18T18:38:57.048Z,0.39
2022-12-18T18:42:00.916Z,0.37
2022-12-18T18:45:03.500Z,0.38
2022-12-18T18:48:06.675Z,0.37
2022-12-18T18:51:11.692Z,0.36
2022-12-18T18:54:16.450Z,0.37
2022-12-18T18:57:21.323Z,0.39
2022-12-18T19:00:25.312Z,0.37
2022-12-18T19:03:28.089Z,0.36
2022-12-18T19:06:30.762Z,0.39
2022-12-18T19:09:33.780Z,0.38
2022-12-18T19:12:55.290Z,0.39
2022-12-18T19:16:03.862Z,0.39
2022-12-18T19:19:06.745Z,0.37
2022-12-18T19:22:10.930Z,0.37
2022-12-18T19:25:13.458Z,0.38
2022-12-18T19:28:22.345Z,0.40
2022-12-18T19:31:29.190Z,0.39
2022-12-18T19:34:34.479Z,0.37
2022-12-18T19:37:37.060Z,0.37
2022-12-18T19:40:41.549Z,0.40
2022-12-18T19:43:45.558Z,0.41
2022-12-18T19:46:48.081Z,0.41
2022-12-18T19:49:50.704Z,0.41
2022-12-18T19:52:53.354Z,0.45
2022-12-18T19:55:55.988Z,0.47
2022-12-18T19:58:59.928Z,0.48
2022-12-18T20:02:02.654Z,0.51
2022-12-18T20:05:06.010Z,0.54
2022-12-18T20:08:09.873Z,0.55
2022-12-18T20:11:12.537Z,0.56
2022-12-18T20:14:22.993Z,0.55
2022-12-18T20:17:26.528Z,0.55
2022-12-18T20:20:29.437Z,0.56
2022-12-18T20:23:33.214Z,0.57
2022-12-18T20:26:37.312Z,0.56
2022-12-18T20:29:41.356Z,0.60
2022-12-18T20:32:43.933Z,0.62
2022-12-18T20:35:46.537Z,0.63
2022-12-18T20:38:50.067Z,0.63
2022-12-18T20:41:52.688Z,0.66
2022-12-18T20:44:56.572Z,0.69
2022-12-18T20:48:00.849Z,0.71
2022-12-18T20:51:05.568Z,0.73
2022-12-18T20:54:11.595Z,0.75
2022-12-18T20:57:14.525Z,0.75
2022-12-18T21:00:19.282Z,0.76
2022-12-18T21:03:23.986Z,0.78
2022-12-18T21:06:26.639Z,0.78
2022-12-18T21:09:32.313Z,0.81
2022-12-18T21:13:01.533Z,0.84
2022-12-18T21:16:08.752Z,0.87
2022-12-18T21:19:14.054Z,0.90
2022-12-18T21:22:16.771Z,0.92
2022-12-18T21:25:19.421Z,0.96
2022-12-18T21:28:21.956Z,0.98
2022-12-18T21:31:27.824Z,1.02
2022-12-18T21:34:31.082Z,1.07
2022-12-18T21:37:33.606Z,1.11
2022-12-18T21:40:36.137Z,1.15
2022-12-18T21:43:56.877Z,1.20
2022-12-18T21:47:10.855Z,1.24
2022-12-18T21:50:23.363Z,1.28
2022-12-18T21:53:25.905Z,1.32
2022-12-18T21:56:46.556Z,1.37
2022-12-18T21:59:50.451Z,1.38
2022-12-18T22:03:18.258Z,1.39
2022-12-18T22:06:16.908Z,1.38
2022-12-18T22:09:20.305Z,1.40
2022-12-18T22:12:43.547Z,1.41
2022-12-18T22:15:47.373Z,1.42
2022-12-18T22:18:51.408Z,1.45
2022-12-18T22:21:54.116Z,1.46
2022-12-18T22:24:56.831Z,1.48
2022-12-18T22:28:17.129Z,1.51
2022-12-18T22:31:19.754Z,1.53
2022-12-18T22:34:23.741Z,1.55
2022-12-18T22:37:26.340Z,1.60
2022-12-18T22:40:29.156Z,1.61
2022-12-18T22:43:31.672Z,1.65
2022-12-18T22:46:35.389Z,1.65
2022-12-18T22:49:39.628Z,1.65
2022-12-18T22:52:42.291Z,1.68
2022-12-18T22:55:44.822Z,1.72
2022-12-18T22:58:48.481Z,1.72
2022-12-18T23:01:52.982Z,1.76
2022-12-18T23:05:02.763Z,1.78
2022-12-18T23:08:05.731Z,1.80
2022-12-18T23:11:08.327Z,1.80
2022-12-18T23:14:10.886Z,1.80
2022-12-18T23:17:13.434Z,1.83
2022-12-18T23:20:17.541Z,1.87
2022-12-18T23:23:20.239Z,1.94
2022-12-18T23:26:24.170Z,1.98
2022-12-18T23:29:26.698Z,2.02
2022-12-18T23:32:29.249Z,2.04
2022-12-18T23:35:33.161Z,2.07
2022-12-18T23:38:36.093Z,2.08
2022-12-18T23:41:38.629Z,2.10
2022-12-18T23:44:41.202Z,2.14
2022-12-18T23:47:43.721Z,2.14
2022-12-18T23:50:50.161Z,2.17
2022-12-18T23:53:52.670Z,2.22
2022-12-18T23:56:55.234Z,2.26
2022-12-18T23:59:57.753Z,2.27
